Time;durP1;ratioP1;P1;durP2;ratioP2;P2;SDS_P1;SDS_P2;PMS_P1;PMS_P2;Temp;Humidity;BMP_temperature;BMP_pressure;BME280_temperature;BME280_humidity;BME280_pressure;Samples;Min_cycle;Max_cycle;Signal;HPM_P1;HPM_P2
2022/01/16 00:04:24;;;;;;;4.95;4.40;;;0.20;99.90;;;;;;5074655;28;20074;-86
2022/01/16 00:06:50;;;;;;;5.80;4.80;;;0.20;99.90;;;;;;5074187;28;20021;-87
2022/01/16 00:09:32;;;;;;;5.78;4.80;;;0.20;99.90;;;;;;5085389;28;20521;-87
2022/01/16 00:12:00;;;;;;;5.35;3.78;;;0.20;99.90;;;;;;5079579;28;20024;-87
2022/01/16 00:14:53;;;;;;;6.22;4.53;;;0.40;99.90;;;;;;5090589;28;20422;-87
2022/01/16 00:17:23;;;;;;;6.13;4.72;;;0.30;99.90;;;;;;5115017;28;20019;-87
2022/01/16 00:19:50;;;;;;;5.05;4.18;;;0.30;99.90;;;;;;5084921;28;20451;-86
2022/01/16 00:22:22;;;;;;;4.15;3.67;;;0.30;99.90;;;;;;5076516;28;20028;-87
2022/01/16 00:24:47;;;;;;;6.68;4.15;;;0.30;99.90;;;;;;5094096;28;20020;-86
2022/01/16 00:27:13;;;;;;;6.82;4.25;;;0.30;99.90;;;;;;5082865;28;20031;-86
2022/01/16 00:29:38;;;;;;;4.82;3.75;;;0.30;99.90;;;;;;5114192;28;20044;-87
2022/01/16 00:32:17;;;;;;;5.95;4.28;;;0.30;99.90;;;;;;5114001;28;20020;-86
2022/01/16 00:34:45;;;;;;;4.43;3.80;;;0.20;99.90;;;;;;5113356;28;20090;-87
2022/01/16 00:37:10;;;;;;;4.53;3.72;;;0.20;99.90;;;;;;5114472;28;20078;-87
2022/01/16 00:39:36;;;;;;;6.05;4.20;;;0.20;99.90;;;;;;5114407;28;20454;-86
2022/01/16 00:42:02;;;;;;;4.63;3.92;;;0.20;99.90;;;;;;5114423;28;20027;-87
2022/01/16 00:44:27;;;;;;;6.00;4.55;;;0.20;99.90;;;;;;5114286;28;20501;-87
2022/01/16 00:46:55;;;;;;;4.75;4.15;;;0.10;99.90;;;;;;5114114;28;20011;-87
2022/01/16 00:49:21;;;;;;;6.05;4.28;;;0.10;99.90;;;;;;5095879;28;20476;-87
2022/01/16 00:51:47;;;;;;;5.25;3.92;;;0.10;99.90;;;;;;5086128;28;20038;-87
2022/01/16 00:54:16;;;;;;;5.82;4.28;;;0.10;99.90;;;;;;5114255;28;20360;-87
2022/01/16 00:56:42;;;;;;;5.75;3.70;;;0.10;99.90;;;;;;5101486;28;20035;-87
2022/01/16 00:59:08;;;;;;;3.85;3.30;;;0.10;99.90;;;;;;5095029;28;20101;-87
2022/01/16 01:01:33;;;;;;;3.80;3.40;;;0.10;99.90;;;;;;5096728;28;20028;-87
2022/01/16 01:03:59;;;;;;;3.58;3.25;;;0.10;99.90;;;;;;5093605;28;20035;-87
2022/01/16 01:06:24;;;;;;;4.03;3.58;;;0.10;99.90;;;;;;5074984;28;20426;-87
2022/01/16 01:08:53;;;;;;;4.25;3.63;;;0.10;99.90;;;;;;5093142;28;20467;-87
2022/01/16 01:11:24;;;;;;;4.00;3.55;;;0.20;99.90;;;;;;5093423;28;20020;-87
2022/01/16 01:16:48;;;;;;;4.20;3.47;;;0.10;99.90;;;;;;5093757;28;20120;-87
2022/01/16 01:19:13;;;;;;;3.20;2.90;;;0.10;99.90;;;;;;5113497;28;20030;-87
2022/01/16 01:21:39;;;;;;;4.30;3.33;;;0.10;99.90;;;;;;5094760;28;20035;-86
2022/01/16 01:24:11;;;;;;;4.20;3.28;;;0.10;99.90;;;;;;5113596;28;20031;-87
2022/01/16 01:26:46;;;;;;;3.45;3.15;;;0.00;99.90;;;;;;5087116;28;20126;-87
2022/01/16 01:29:19;;;;;;;3.42;3.13;;;0.00;99.90;;;;;;5093144;28;20032;-87
2022/01/16 01:32:02;;;;;;;6.93;2.78;;;0.00;99.90;;;;;;5092317;28;20050;-87
2022/01/16 01:34:28;;;;;;;5.53;2.80;;;0.00;99.90;;;;;;5092423;28;20024;-86
2022/01/16 01:36:55;;;;;;;3.33;2.88;;;0.10;99.90;;;;;;5093055;28;20357;-87
2022/01/16 01:39:21;;;;;;;3.70;2.60;;;0.00;99.90;;;;;;5074931;28;20073;-86
2022/01/16 01:41:50;;;;;;;5.38;3.20;;;0.00;99.90;;;;;;5092663;28;20063;-86
2022/01/16 01:52:38;;;;;;;2.65;2.35;;;-0.10;99.90;;;;;;5113222;28;20089;-86
2022/01/16 01:55:04;;;;;;;3.10;2.80;;;-0.10;99.90;;;;;;5092795;28;20059;-87
2022/01/16 01:57:29;;;;;;;2.80;2.58;;;-0.10;99.90;;;;;;5074627;28;20063;-87
2022/01/16 02:00:01;;;;;;;3.58;2.80;;;0.00;99.90;;;;;;5092811;28;20028;-86
2022/01/16 02:02:31;;;;;;;3.10;2.60;;;0.00;99.90;;;;;;5092523;28;20103;-87
2022/01/16 02:04:57;;;;;;;2.67;2.40;;;0.00;99.90;;;;;;5092564;28;20072;-87
2022/01/16 02:07:29;;;;;;;2.75;2.55;;;0.00;99.90;;;;;;5106845;28;20031;-87
2022/01/16 02:09:55;;;;;;;3.03;2.63;;;0.00;99.90;;;;;;5113079;28;20055;-87
2022/01/16 02:12:23;;;;;;;2.83;2.30;;;0.00;99.90;;;;;;5080196;28;20059;-87
2022/01/16 02:15:04;;;;;;;2.35;2.15;;;0.10;99.90;;;;;;5092768;28;20116;-87
2022/01/16 02:28:55;;;;;;;2.47;2.05;;;0.10;99.90;;;;;;5100662;28;20026;-87
2022/01/16 02:31:26;;;;;;;3.15;2.80;;;0.10;99.90;;;;;;5110295;28;20028;-87
2022/01/16 02:36:47;;;;;;;2.60;2.08;;;0.00;99.90;;;;;;5096227;28;20083;-88
2022/01/16 02:39:14;;;;;;;1.90;1.80;;;0.00;99.90;;;;;;5096411;28;20028;-87
2022/01/16 02:41:42;;;;;;;2.05;1.95;;;-0.10;99.90;;;;;;5081733;28;20057;-87
2022/01/16 02:44:18;;;;;;;5.88;1.90;;;-0.10;99.90;;;;;;5116621;28;20055;-87
2022/01/16 02:46:44;;;;;;;;;;;-0.10;99.90;;;;;;5112842;28;20073;-87
2022/01/16 02:49:30;;;;;;;1.98;1.88;;;-0.10;99.90;;;;;;5116506;28;19907;-87
2022/01/16 02:52:01;;;;;;;4.55;2.22;;;-0.10;99.90;;;;;;5078630;28;20012;-88
2022/01/16 02:54:28;;;;;;;4.32;2.50;;;-0.10;99.90;;;;;;5096148;28;20103;-87
2022/01/16 02:56:54;;;;;;;3.38;2.28;;;-0.10;99.90;;;;;;5102567;28;20020;-87
2022/01/16 02:59:25;;;;;;;3.50;2.00;;;-0.10;99.90;;;;;;5098140;28;20042;-87
2022/01/16 03:01:51;;;;;;;4.43;2.13;;;-0.10;99.90;;;;;;5100758;28;20531;-88
2022/01/16 03:04:17;;;;;;;2.25;2.05;;;-0.10;99.90;;;;;;5077535;28;20055;-87
2022/01/16 03:06:51;;;;;;;3.45;2.05;;;-0.10;99.90;;;;;;5095800;28;20024;-87
2022/01/16 03:09:19;;;;;;;3.65;2.25;;;-0.10;99.90;;;;;;5106979;28;20032;-87
2022/01/16 03:11:49;;;;;;;2.85;2.20;;;-0.10;99.90;;;;;;5103387;28;20020;-87
2022/01/16 03:14:20;;;;;;;3.47;1.77;;;-0.10;99.90;;;;;;5105448;28;20012;-88
2022/01/16 03:16:50;;;;;;;1.67;1.58;;;0.00;99.90;;;;;;5103246;28;20069;-88
2022/01/16 03:22:03;;;;;;;10.38;2.03;;;0.00;99.90;;;;;;5110686;28;20093;-87
2022/01/16 03:24:47;;;;;;;3.38;1.45;;;0.00;99.90;;;;;;5095473;28;20027;-87
2022/01/16 03:27:15;;;;;;;1.85;1.75;;;0.00;99.90;;;;;;5095537;28;20032;-87
2022/01/16 03:29:48;;;;;;;7.68;2.22;;;0.00;99.90;;;;;;5093844;28;20048;-87
2022/01/16 03:32:16;;;;;;;7.10;1.65;;;0.00;99.90;;;;;;5095400;28;20047;-87
2022/01/16 03:34:42;;;;;;;5.20;1.50;;;0.00;99.90;;;;;;5097053;28;20023;-87
2022/01/16 03:37:08;;;;;;;6.10;3.30;;;0.00;99.90;;;;;;5112280;28;20472;-87
2022/01/16 03:39:34;;;;;;;6.63;1.92;;;0.00;99.90;;;;;;5095389;28;20537;-87
2022/01/16 03:42:01;;;;;;;6.43;1.73;;;0.00;99.90;;;;;;5097905;28;20103;-87
2022/01/16 03:44:40;;;;;;;8.45;1.60;;;0.00;99.90;;;;;;5095139;28;20031;-88
2022/01/16 03:47:06;;;;;;;11.93;3.38;;;0.00;99.90;;;;;;5110604;28;20042;-87
2022/01/16 03:49:32;;;;;;;8.30;2.13;;;0.00;99.90;;;;;;5115256;28;20036;-87
2022/01/16 03:51:59;;;;;;;8.95;1.60;;;0.00;99.90;;;;;;5115210;28;20012;-87
2022/01/16 03:54:27;;;;;;;5.20;1.90;;;0.00;99.90;;;;;;5074819;28;20116;-87
2022/01/16 03:56:54;;;;;;;4.70;1.63;;;0.00;99.90;;;;;;5074777;28;20020;-87
2022/01/16 03:59:20;;;;;;;7.70;1.88;;;0.00;99.90;;;;;;5074830;28;20078;-87
2022/01/16 04:01:46;;;;;;;5.28;1.98;;;0.00;99.90;;;;;;5074493;28;20388;-87
2022/01/16 04:04:13;;;;;;;3.28;1.83;;;0.00;99.90;;;;;;5074019;28;20035;-87
2022/01/16 04:06:39;;;;;;;5.22;1.20;;;0.00;99.90;;;;;;5074456;28;20031;-87
2022/01/16 04:09:05;;;;;;;3.20;1.50;;;0.00;99.90;;;;;;5091527;28;20032;-87
2022/01/16 04:11:50;;;;;;;7.75;2.05;;;0.10;99.90;;;;;;5094430;28;20073;-86
2022/01/16 04:14:22;;;;;;;9.80;2.35;;;0.10;99.90;;;;;;5109925;28;20027;-87
2022/01/16 04:16:48;;;;;;;3.03;1.45;;;0.10;99.90;;;;;;5097386;28;20115;-86
2022/01/16 04:19:15;;;;;;;2.38;1.88;;;0.10;99.90;;;;;;5096359;28;20439;-87
2022/01/16 04:21:41;;;;;;;5.45;1.65;;;0.10;99.90;;;;;;5101830;28;20076;-86
2022/01/16 04:24:06;;;;;;;2.00;1.50;;;0.10;99.90;;;;;;5097401;28;20095;-86
2022/01/16 04:26:35;;;;;;;4.22;1.50;;;0.10;99.90;;;;;;5094442;28;20499;-87
2022/01/16 04:29:01;;;;;;;7.65;1.48;;;0.10;99.90;;;;;;5109775;28;20017;-87
2022/01/16 04:31:26;;;;;;;6.88;2.47;;;0.20;99.90;;;;;;5108014;28;20078;-87
2022/01/16 04:33:52;;;;;;;3.80;1.40;;;0.20;99.90;;;;;;5086196;28;20055;-87
2022/01/16 04:36:18;;;;;;;4.60;2.42;;;0.30;99.90;;;;;;5073479;28;20420;-86
2022/01/16 04:38:46;;;;;;;3.75;1.90;;;0.30;99.90;;;;;;5073879;28;20027;-88
2022/01/16 04:43:57;;;;;;;6.25;2.25;;;0.40;99.90;;;;;;5073231;28;20048;-87
2022/01/16 04:46:25;;;;;;;7.38;1.95;;;0.40;99.90;;;;;;5083184;28;20025;-87
2022/01/16 04:48:57;;;;;;;11.55;1.90;;;0.40;99.90;;;;;;5039823;28;20460;-88
2022/01/16 04:51:24;;;;;;;3.15;2.03;;;0.50;99.90;;;;;;5082302;28;20052;-87
2022/01/16 04:53:50;;;;;;;7.03;2.08;;;0.50;99.90;;;;;;5093990;28;20031;-88
2022/01/16 04:56:18;;;;;;;2.45;1.73;;;0.60;99.90;;;;;;5075000;28;20032;-87
2022/01/16 04:58:44;;;;;;;9.40;2.00;;;0.60;99.90;;;;;;5081461;28;20032;-87
2022/01/16 05:01:10;;;;;;;10.32;2.72;;;0.70;99.90;;;;;;5055560;28;20070;-87
2022/01/16 05:03:40;;;;;;;6.97;2.20;;;0.70;99.90;;;;;;5081813;28;20039;-87
2022/01/16 05:06:06;;;;;;;7.70;2.60;;;0.80;99.90;;;;;;5080604;28;20396;-87
2022/01/16 05:08:36;;;;;;;4.20;2.30;;;0.70;99.90;;;;;;5073320;28;20395;-87
2022/01/16 05:11:04;;;;;;;5.22;2.47;;;0.70;99.90;;;;;;5055272;28;20016;-87
2022/01/16 05:18:50;;;;;;;4.80;1.85;;;0.80;99.90;;;;;;5073110;28;20042;-87
2022/01/16 05:21:16;;;;;;;5.00;1.67;;;0.80;99.90;;;;;;5072972;28;20055;-87
2022/01/16 05:23:42;;;;;;;4.50;2.03;;;0.80;99.90;;;;;;5073508;28;20032;-86
2022/01/16 05:26:14;;;;;;;4.15;1.70;;;0.80;99.90;;;;;;5055151;28;20060;-88
2022/01/16 05:28:40;;;;;;;8.00;2.33;;;0.80;99.90;;;;;;5072875;28;20029;-86
2022/01/16 05:31:06;;;;;;;8.65;2.28;;;0.80;99.90;;;;;;5060707;28;20151;-87
2022/01/16 05:33:41;;;;;;;8.68;2.10;;;0.80;99.90;;;;;;5108751;28;20077;-87
2022/01/16 05:36:06;;;;;;;8.20;2.50;;;0.90;99.90;;;;;;5092665;28;20020;-87
2022/01/16 05:38:32;;;;;;;6.55;2.58;;;1.00;99.90;;;;;;5093096;28;20085;-87
2022/01/16 05:41:00;;;;;;;9.13;2.20;;;1.00;99.90;;;;;;5097722;28;20387;-86
2022/01/16 05:43:26;;;;;;;6.47;2.25;;;1.10;99.90;;;;;;5113414;28;20023;-87
2022/01/16 05:45:54;;;;;;;7.45;3.22;;;1.10;99.90;;;;;;5113232;28;20514;-86
2022/01/16 05:48:20;;;;;;;8.40;2.30;;;1.10;99.90;;;;;;5113271;28;20035;-87
2022/01/16 05:50:45;;;;;;;8.40;1.92;;;1.20;99.90;;;;;;5095040;28;20024;-87
2022/01/16 05:53:14;;;;;;;4.55;1.70;;;1.10;99.90;;;;;;5094711;28;20032;-87
2022/01/16 05:55:46;;;;;;;7.97;2.17;;;1.10;99.90;;;;;;5112870;28;20038;-87
2022/01/16 05:58:11;;;;;;;12.57;2.28;;;1.10;99.90;;;;;;5113240;28;20132;-87
2022/01/16 06:00:39;;;;;;;2.38;1.90;;;1.10;99.90;;;;;;5113218;28;20502;-87
2022/01/16 06:03:04;;;;;;;6.18;1.98;;;1.10;99.90;;;;;;5113168;28;20059;-87
2022/01/16 06:05:30;;;;;;;2.33;1.40;;;1.10;99.90;;;;;;5094674;28;20089;-87
2022/01/16 06:08:24;;;;;;;5.07;1.85;;;1.10;99.90;;;;;;5112892;28;20403;-87
2022/01/16 06:10:50;;;;;;;4.85;1.60;;;1.10;99.90;;;;;;5094778;28;20024;-87
2022/01/16 06:13:16;;;;;;;1.67;1.50;;;1.10;99.90;;;;;;5113096;28;20038;-87
2022/01/16 06:15:41;;;;;;;7.70;2.30;;;1.10;99.90;;;;;;5113173;28;20028;-87
2022/01/16 06:18:08;;;;;;;7.68;2.78;;;1.10;99.90;;;;;;5094783;28;20039;-87
2022/01/16 06:20:34;;;;;;;8.20;2.75;;;1.20;99.90;;;;;;5094285;28;20032;-87
2022/01/16 06:23:04;;;;;;;5.28;1.80;;;1.20;99.90;;;;;;5100140;28;20032;-87
2022/01/16 06:25:30;;;;;;;7.82;2.15;;;1.20;99.90;;;;;;5091354;28;20426;-87
2022/01/16 06:27:58;;;;;;;9.85;3.90;;;1.30;99.90;;;;;;5091016;28;20028;-87
2022/01/16 06:30:24;;;;;;;18.73;5.88;;;1.40;99.90;;;;;;5091336;28;20395;-86
2022/01/16 06:32:50;;;;;;;17.23;5.90;;;1.70;99.90;;;;;;5093777;28;20024;-87
2022/01/16 06:35:16;;;;;;;8.20;5.10;;;1.90;99.90;;;;;;5091444;28;20025;-87
2022/01/16 06:37:44;;;;;;;11.75;5.80;;;2.00;99.90;;;;;;5110404;28;20031;-86
2022/01/16 06:40:12;;;;;;;11.77;5.60;;;2.10;99.90;;;;;;5112675;28;20019;-87
2022/01/16 06:42:38;;;;;;;22.27;7.10;;;2.10;99.90;;;;;;5112583;28;20035;-87
2022/01/16 06:45:06;;;;;;;25.10;7.25;;;2.10;99.90;;;;;;5112196;28;20417;-86
2022/01/16 06:47:32;;;;;;;18.05;8.15;;;2.10;99.90;;;;;;5090474;28;20032;-87
2022/01/16 06:50:00;;;;;;;22.63;7.63;;;2.10;99.90;;;;;;5091835;28;20049;-87
2022/01/16 06:52:25;;;;;;;15.18;6.18;;;2.10;99.90;;;;;;5091390;28;20031;-85
2022/01/16 06:54:51;;;;;;;15.23;7.05;;;2.00;99.90;;;;;;5073319;28;20016;-85
2022/01/16 06:57:16;;;;;;;16.00;7.30;;;1.90;99.90;;;;;;5072973;28;20020;-85
2022/01/16 06:59:45;;;;;;;10.20;6.35;;;1.90;99.90;;;;;;5091565;28;20036;-86
2022/01/16 07:02:12;;;;;;;12.35;6.57;;;1.80;99.90;;;;;;5109062;28;20063;-85
2022/01/16 07:04:37;;;;;;;13.55;7.22;;;1.80;99.90;;;;;;5101277;28;20015;-85
2022/01/16 07:07:03;;;;;;;13.73;6.35;;;1.70;99.90;;;;;;5111495;28;20019;-86
2022/01/16 07:09:29;;;;;;;14.57;7.43;;;1.70;99.90;;;;;;5115666;28;20023;-86
2022/01/16 07:11:54;;;;;;;10.30;6.53;;;1.70;99.90;;;;;;5096090;28;20051;-84
2022/01/16 07:14:20;;;;;;;15.77;6.60;;;1.60;99.90;;;;;;5100348;28;20388;-86
2022/01/16 07:16:45;;;;;;;11.40;7.65;;;1.60;99.90;;;;;;5094754;28;20073;-86
2022/01/16 07:19:11;;;;;;;15.70;6.97;;;1.60;99.90;;;;;;5100181;28;20034;-85
2022/01/16 07:21:37;;;;;;;18.50;7.70;;;1.50;99.90;;;;;;5080381;28;20032;-86
2022/01/16 07:24:03;;;;;;;17.85;7.88;;;1.50;99.90;;;;;;5100884;28;20472;-86
2022/01/16 07:26:28;;;;;;;17.73;7.47;;;1.40;99.90;;;;;;5105853;28;20035;-86
2022/01/16 07:28:54;;;;;;;15.10;5.75;;;1.40;99.90;;;;;;5082257;28;20027;-86
2022/01/16 07:31:19;;;;;;;8.25;5.57;;;1.40;99.90;;;;;;5104943;28;20113;-85
2022/01/16 07:33:45;;;;;;;8.93;4.93;;;1.50;99.90;;;;;;5093998;28;20028;-85
2022/01/16 07:36:11;;;;;;;8.55;5.93;;;1.50;99.90;;;;;;5100683;28;20068;-86
2022/01/16 07:38:36;;;;;;;7.93;4.82;;;1.60;99.90;;;;;;5092867;28;20024;-85
2022/01/16 07:41:02;;;;;;;11.05;3.67;;;1.60;99.90;;;;;;5094266;28;20476;-85
2022/01/16 07:43:27;;;;;;;6.60;5.07;;;1.70;99.90;;;;;;5104327;28;20027;-85
2022/01/16 07:45:53;;;;;;;9.02;5.03;;;1.60;99.90;;;;;;5100903;28;20486;-85
2022/01/16 07:48:19;;;;;;;17.55;7.60;;;1.60;99.90;;;;;;5102176;28;20028;-86
2022/01/16 07:50:44;;;;;;;20.17;8.32;;;1.60;99.90;;;;;;5084510;28;20031;-85
2022/01/16 07:53:10;;;;;;;25.73;9.32;;;1.70;99.90;;;;;;5090669;28;20031;-85
2022/01/16 07:55:36;;;;;;;19.38;9.35;;;1.70;99.90;;;;;;5099122;28;20438;-85
2022/01/16 07:58:02;;;;;;;18.30;8.35;;;1.70;99.90;;;;;;5093232;28;20507;-86
2022/01/16 08:00:28;;;;;;;19.20;9.15;;;1.80;99.90;;;;;;5100491;28;20028;-85
2022/01/16 08:02:54;;;;;;;15.13;7.20;;;1.70;99.90;;;;;;5092218;28;20452;-85
2022/01/16 08:05:20;;;;;;;15.32;7.25;;;1.70;99.90;;;;;;5103370;28;20099;-86
2022/01/16 08:07:46;;;;;;;12.27;6.45;;;1.80;99.90;;;;;;5109088;28;20523;-86
2022/01/16 08:10:13;;;;;;;16.67;5.88;;;1.80;99.90;;;;;;5109633;28;20100;-85
2022/01/16 08:12:39;;;;;;;10.52;5.47;;;1.90;99.90;;;;;;5076566;28;20022;-85
2022/01/16 08:15:06;;;;;;;9.65;4.45;;;1.90;99.90;;;;;;5099023;28;20020;-85
2022/01/16 08:17:42;;;;;;;6.18;4.38;;;2.00;99.90;;;;;;5092711;28;20457;-85
2022/01/16 08:20:09;;;;;;;8.25;5.07;;;2.00;99.90;;;;;;5099719;28;20081;-85
2022/01/16 08:22:36;;;;;;;10.43;5.45;;;2.00;99.90;;;;;;5109423;28;20020;-84
2022/01/16 08:25:25;;;;;;;10.32;5.75;;;2.00;99.90;;;;;;5110453;28;20055;-85
2022/01/16 08:27:51;;;;;;;9.68;5.68;;;2.00;99.90;;;;;;5091262;28;20476;-90
2022/01/16 08:30:17;;;;;;;5.18;4.28;;;2.00;99.90;;;;;;5114348;28;20103;-84
2022/01/16 08:32:44;;;;;;;5.35;3.50;;;2.10;99.90;;;;;;5106170;28;20487;-84
2022/01/16 08:35:10;;;;;;;8.70;4.13;;;2.20;99.90;;;;;;5093231;28;20031;-84
2022/01/16 08:37:36;;;;;;;4.85;3.30;;;2.30;99.90;;;;;;5109179;28;20485;-84
2022/01/16 08:40:03;;;;;;;6.38;3.42;;;2.30;99.90;;;;;;5087822;28;20028;-85
2022/01/16 08:42:28;;;;;;;6.82;4.28;;;2.30;99.90;;;;;;5113602;28;20459;-85
2022/01/16 08:44:54;;;;;;;8.93;4.35;;;2.40;99.90;;;;;;5080760;28;20067;-84
2022/01/16 08:47:20;;;;;;;6.38;4.38;;;2.40;99.90;;;;;;5099418;28;20023;-84
2022/01/16 08:49:46;;;;;;;6.82;4.50;;;2.40;99.90;;;;;;5092389;28;20066;-84
2022/01/16 08:52:11;;;;;;;8.77;5.60;;;2.60;99.90;;;;;;5092837;28;20050;-84
2022/01/16 08:54:37;;;;;;;9.75;5.28;;;3.00;99.90;;;;;;5102462;28;20502;-84
2022/01/16 08:57:03;;;;;;;9.18;6.03;;;3.10;99.90;;;;;;5107883;28;20020;-85
2022/01/16 08:59:29;;;;;;;9.90;6.18;;;3.30;99.90;;;;;;5098718;28;20081;-85
2022/01/16 09:01:55;;;;;;;12.57;6.45;;;3.50;99.90;;;;;;5083829;28;20080;-84
2022/01/16 09:04:20;;;;;;;14.63;6.85;;;3.60;99.90;;;;;;5110995;28;20069;-84
2022/01/16 09:06:46;;;;;;;14.98;6.68;;;3.70;99.90;;;;;;5105974;28;20036;-85
2022/01/16 09:09:12;;;;;;;13.48;8.25;;;3.70;99.90;;;;;;5074319;28;20028;-85
2022/01/16 09:11:37;;;;;;;20.77;8.15;;;3.70;99.90;;;;;;5091963;28;20031;-85
2022/01/16 09:14:03;;;;;;;11.82;7.85;;;3.70;99.90;;;;;;5092510;28;20467;-85
2022/01/16 09:16:30;;;;;;;14.32;8.68;;;3.70;99.90;;;;;;5074495;28;20031;-85
2022/01/16 09:18:56;;;;;;;13.15;8.25;;;3.70;99.90;;;;;;5100422;28;20044;-85
2022/01/16 09:21:22;;;;;;;11.90;8.07;;;3.50;99.90;;;;;;5106748;28;20467;-84
2022/01/16 09:23:49;;;;;;;12.27;8.20;;;3.60;99.90;;;;;;5078943;28;20119;-84
2022/01/16 09:26:16;;;;;;;13.77;8.20;;;3.50;99.90;;;;;;5093722;28;20482;-84
2022/01/16 09:28:43;;;;;;;13.60;7.93;;;3.50;99.90;;;;;;5094478;28;20456;-85
2022/01/16 09:31:09;;;;;;;12.88;7.03;;;3.50;99.90;;;;;;5081798;28;20113;-85
2022/01/16 09:33:36;;;;;;;9.93;6.70;;;3.50;99.90;;;;;;5090094;28;20033;-85
2022/01/16 09:36:04;;;;;;;11.20;7.35;;;3.40;99.90;;;;;;5075060;28;20507;-85
2022/01/16 09:38:29;;;;;;;14.10;7.18;;;3.40;99.90;;;;;;5072159;28;20029;-86
2022/01/16 09:40:55;;;;;;;10.68;6.60;;;3.40;99.90;;;;;;5072021;28;20035;-86
2022/01/16 09:43:21;;;;;;;12.20;6.15;;;3.40;99.90;;;;;;5083000;28;20085;-85
2022/01/16 09:45:48;;;;;;;9.65;6.60;;;3.40;99.90;;;;;;5075005;28;20443;-85
2022/01/16 09:48:16;;;;;;;11.63;7.05;;;3.40;99.90;;;;;;5070789;28;20488;-85
2022/01/16 09:50:42;;;;;;;11.20;7.10;;;3.30;99.90;;;;;;5088849;28;20111;-84
2022/01/16 09:53:07;;;;;;;13.77;7.65;;;3.30;99.90;;;;;;5078733;28;20421;-85
2022/01/16 09:55:33;;;;;;;13.68;8.40;;;3.30;99.90;;;;;;5058639;28;20110;-84
2022/01/16 09:58:00;;;;;;;15.15;7.45;;;3.20;99.90;;;;;;5071238;28;20082;-85
2022/01/16 10:00:27;;;;;;;13.00;8.10;;;3.30;99.90;;;;;;5071468;28;20050;-85
2022/01/16 10:02:57;;;;;;;13.18;8.48;;;3.20;99.90;;;;;;5072927;28;20040;-84
2022/01/16 10:05:35;;;;;;;16.02;8.60;;;3.20;99.90;;;;;;5085196;28;20035;-85
2022/01/16 10:08:03;;;;;;;12.60;8.02;;;3.20;99.90;;;;;;5070646;28;20063;-84
2022/01/16 10:10:32;;;;;;;16.88;9.15;;;3.20;99.90;;;;;;5072428;28;20016;-84
2022/01/16 10:13:07;;;;;;;14.85;9.27;;;3.20;99.90;;;;;;5071712;28;20055;-84
2022/01/16 10:15:33;;;;;;;16.58;9.20;;;3.20;99.90;;;;;;5072236;28;20092;-84
2022/01/16 10:18:01;;;;;;;18.13;9.73;;;3.30;99.90;;;;;;5071747;28;20483;-84
2022/01/16 10:20:28;;;;;;;21.27;10.85;;;3.30;99.90;;;;;;5071897;28;20028;-85
2022/01/16 10:22:54;;;;;;;17.63;9.80;;;3.30;99.90;;;;;;5071583;28;20103;-84
2022/01/16 10:25:41;;;;;;;19.73;11.32;;;3.40;99.90;;;;;;5071335;28;20537;-84
2022/01/16 10:28:22;;;;;;;20.10;10.88;;;3.40;99.90;;;;;;5075046;28;20063;-83
2022/01/16 10:30:51;;;;;;;18.13;11.07;;;3.40;99.90;;;;;;5085580;28;20428;-84
2022/01/16 10:33:19;;;;;;;18.60;12.00;;;3.40;99.90;;;;;;5095356;28;20055;-84
2022/01/16 10:35:47;;;;;;;24.02;12.80;;;3.40;99.90;;;;;;5102229;28;20543;-84
2022/01/16 10:38:19;;;;;;;21.27;12.55;;;3.40;99.90;;;;;;5107048;28;20094;-84
2022/01/16 10:40:50;;;;;;;20.25;12.98;;;3.40;99.90;;;;;;5112291;28;20027;-84
2022/01/16 10:43:16;;;;;;;21.48;12.65;;;3.30;99.90;;;;;;5113550;28;20031;-84
2022/01/16 10:45:46;;;;;;;23.33;13.80;;;3.20;99.90;;;;;;5112667;28;20466;-89
2022/01/16 10:48:13;;;;;;;24.40;14.48;;;3.20;99.90;;;;;;5095891;28;20063;-84
2022/01/16 10:50:45;;;;;;;31.70;16.05;;;3.20;99.90;;;;;;5095966;28;20019;-84
2022/01/16 10:53:12;;;;;;;24.08;13.95;;;3.10;99.90;;;;;;5095695;28;20107;-84
2022/01/16 10:55:44;;;;;;;29.60;15.80;;;3.10;99.90;;;;;;5103126;28;20031;-85
2022/01/16 10:58:19;;;;;;;28.27;15.52;;;3.10;99.90;;;;;;5105849;28;20027;-84
2022/01/16 11:00:56;;;;;;;;;;;3.20;99.90;;;;;;5077543;28;20039;-84
2022/01/16 11:03:23;;;;;;;28.80;15.80;;;3.20;99.90;;;;;;5112402;27;19908;-84
2022/01/16 11:05:50;;;;;;;28.90;15.35;;;3.20;99.90;;;;;;5103101;28;20104;-84
2022/01/16 11:08:21;;;;;;;28.83;15.23;;;3.30;99.90;;;;;;5104457;28;20031;-84
2022/01/16 11:10:50;;;;;;;26.30;15.43;;;3.30;99.90;;;;;;5077117;28;20510;-84
2022/01/16 11:13:21;;;;;;;29.17;16.35;;;3.30;99.90;;;;;;5094976;28;20840;-83
2022/01/16 11:16:04;;;;;;;28.15;15.30;;;3.30;99.90;;;;;;5095657;28;20027;-83
2022/01/16 11:18:31;;;;;;;35.50;16.88;;;3.30;99.90;;;;;;5101562;28;20405;-84
2022/01/16 11:21:14;;;;;;;31.02;15.20;;;3.40;99.90;;;;;;5097185;28;20031;-84
2022/01/16 11:26:18;;;;;;;27.20;15.95;;;3.50;99.90;;;;;;5104946;28;20483;-83
2022/01/16 11:28:44;;;;;;;32.15;16.30;;;3.50;99.90;;;;;;5099227;28;20114;-85
2022/01/16 11:31:12;;;;;;;27.88;14.98;;;3.60;99.90;;;;;;5109849;28;20097;-85
2022/01/16 11:33:39;;;;;;;30.65;15.05;;;3.60;99.90;;;;;;5094186;28;20161;-85
2022/01/16 11:36:08;;;;;;;26.33;14.45;;;3.60;99.90;;;;;;5079984;28;20391;-84
2022/01/16 11:38:40;;;;;;;27.25;14.45;;;3.60;99.90;;;;;;5079247;28;20024;-84
2022/01/16 11:41:18;;;;;;;28.08;15.02;;;3.60;99.90;;;;;;5094481;28;20519;-84
2022/01/16 11:43:49;;;;;;;26.65;14.18;;;3.70;99.90;;;;;;5094618;28;20024;-84
2022/01/16 11:46:19;;;;;;;26.60;12.73;;;3.80;99.90;;;;;;5095539;28;20036;-83
2022/01/16 11:49:01;;;;;;;23.38;12.80;;;3.80;99.90;;;;;;5114895;28;20028;-84
2022/01/16 11:51:36;;;;;;;19.30;11.38;;;3.80;99.90;;;;;;5095591;28;20116;-83
2022/01/16 11:54:01;;;;;;;22.70;12.73;;;3.90;99.90;;;;;;5094995;28;20047;-83
2022/01/16 11:56:39;;;;;;;22.42;12.50;;;3.90;99.90;;;;;;5088496;28;20024;-83
2022/01/16 11:59:14;;;;;;;24.50;12.70;;;3.90;99.90;;;;;;5077368;28;20119;-83
2022/01/16 12:01:56;;;;;;;22.47;11.93;;;4.00;99.90;;;;;;5105742;28;20384;-83
2022/01/16 12:04:30;;;;;;;19.95;11.32;;;4.00;99.90;;;;;;5113076;28;20031;-83
2022/01/16 12:07:04;;;;;;;26.75;11.60;;;4.00;99.90;;;;;;5078275;28;20434;-83
2022/01/16 12:09:37;;;;;;;21.20;10.80;;;4.00;99.90;;;;;;5100178;28;20055;-84
2022/01/16 12:12:23;;;;;;;18.60;10.18;;;4.00;99.90;;;;;;5097264;28;20045;-84
2022/01/16 12:15:05;;;;;;;17.73;10.55;;;4.10;99.90;;;;;;5106380;28;20391;-84
2022/01/16 12:17:41;;;;;;;19.20;10.93;;;4.10;99.90;;;;;;5060711;28;20028;-84
2022/01/16 12:20:13;;;;;;;21.58;11.63;;;4.10;99.90;;;;;;5093817;28;20101;-84
2022/01/16 12:23:04;;;;;;;25.67;12.27;;;4.10;99.90;;;;;;5075527;28;20028;-84
2022/01/16 12:25:36;;;;;;;19.35;10.15;;;4.10;99.90;;;;;;5075560;28;20120;-84
2022/01/16 12:28:04;;;;;;;24.88;10.93;;;4.10;99.90;;;;;;5097790;28;20032;-84
2022/01/16 12:30:45;;;;;;;24.02;10.85;;;4.00;99.90;;;;;;5075355;28;20128;-84
2022/01/16 12:33:22;;;;;;;18.48;10.02;;;4.00;99.90;;;;;;5074831;28;20531;-84
2022/01/16 12:35:51;;;;;;;20.15;11.18;;;4.00;99.90;;;;;;5093682;28;20021;-84
2022/01/16 12:38:37;;;;;;;26.25;12.50;;;4.00;99.90;;;;;;5073801;28;20498;-84
2022/01/16 12:41:06;;;;;;;14.85;9.20;;;4.10;99.90;;;;;;5068360;28;20032;-84
2022/01/16 12:43:40;;;;;;;13.82;8.90;;;4.10;99.90;;;;;;5074667;28;20032;-85
2022/01/16 12:46:09;;;;;;;16.00;9.15;;;4.00;99.90;;;;;;5093535;28;20027;-84
2022/01/16 12:48:52;;;;;;;15.68;9.02;;;4.10;99.90;;;;;;5092388;28;20491;-84
2022/01/16 12:51:20;;;;;;;20.02;10.23;;;4.10;99.90;;;;;;5091031;28;20106;-85
2022/01/16 12:53:54;;;;;;;14.38;8.40;;;4.10;99.90;;;;;;5093592;28;20468;-83
2022/01/16 12:56:31;;;;;;;11.30;7.03;;;4.00;99.90;;;;;;5093154;28;20017;-85
2022/01/16 12:59:13;;;;;;;13.88;8.90;;;4.00;99.90;;;;;;5093620;28;20036;-84
2022/01/16 13:01:49;;;;;;;12.88;8.32;;;4.00;99.90;;;;;;5078459;28;20020;-83
2022/01/16 13:04:39;;;;;;;16.98;9.18;;;4.00;99.90;;;;;;5092576;28;20491;-85
2022/01/16 13:07:10;;;;;;;23.48;10.07;;;4.00;99.90;;;;;;5067519;28;20040;-83
2022/01/16 13:09:36;;;;;;;17.98;10.70;;;4.00;99.90;;;;;;5058119;28;20436;-85
2022/01/16 13:12:03;;;;;;;20.00;10.13;;;3.90;99.90;;;;;;5092871;28;20464;-84
2022/01/16 13:14:32;;;;;;;13.93;9.10;;;4.00;99.90;;;;;;5092951;28;20020;-85
2022/01/16 13:17:00;;;;;;;13.52;8.63;;;3.90;99.90;;;;;;5092748;28;20376;-84
2022/01/16 13:19:26;;;;;;;18.15;9.88;;;4.00;99.90;;;;;;5092483;28;20050;-83
2022/01/16 13:22:12;;;;;;;18.40;9.10;;;3.90;99.90;;;;;;5092501;28;20028;-83
2022/01/16 13:24:57;;;;;;;13.57;8.00;;;4.00;99.90;;;;;;5092671;28;20017;-84
2022/01/16 13:27:37;;;;;;;11.48;7.78;;;4.10;99.90;;;;;;5074750;28;20502;-84
2022/01/16 13:30:06;;;;;;;13.93;8.23;;;4.10;99.90;;;;;;5092707;28;20059;-84
2022/01/16 13:32:32;;;;;;;13.68;8.27;;;4.10;99.90;;;;;;5092060;28;20074;-84
2022/01/16 13:34:58;;;;;;;12.98;7.70;;;4.20;99.90;;;;;;5092843;28;20031;-84
2022/01/16 13:37:37;;;;;;;13.10;7.85;;;4.20;99.90;;;;;;5092820;28;20468;-84
2022/01/16 13:40:09;;;;;;;14.07;8.13;;;4.20;99.90;;;;;;5074225;28;20510;-84
2022/01/16 13:42:40;;;;;;;12.65;7.53;;;4.20;99.90;;;;;;5092233;28;20028;-85